sensor_id;sensor_type;location;lat;lon;timestamp;temperature;humidity
48454;DHT22;34261;55.678;12.464;2023-04-24T00:00:31;10.10;99.90
48454;DHT22;34261;55.678;12.464;2023-04-24T00:02:56;10.20;99.90
48454;DHT22;34261;55.678;12.464;2023-04-24T00:05:23;10.20;99.90
48454;DHT22;34261;55.678;12.464;2023-04-24T00:07:48;10.30;99.90
48454;DHT22;34261;55.678;12.464;2023-04-24T00:10:14;10.30;99.90
48454;DHT22;34261;55.678;12.464;2023-04-24T00:12:39;10.30;99.90
48454;DHT22;34261;55.678;12.464;2023-04-24T00:15:05;10.40;99.90
48454;DHT22;34261;55.678;12.464;2023-04-24T00:17:31;10.50;99.90
48454;DHT22;34261;55.678;12.464;2023-04-24T00:19:56;10.50;99.90
48454;DHT22;34261;55.678;12.464;2023-04-24T00:22:25;10.50;99.90
48454;DHT22;34261;55.678;12.464;2023-04-24T00:24:51;10.60;99.90
48454;DHT22;34261;55.678;12.464;2023-04-24T00:27:16;10.60;99.90
48454;DHT22;34261;55.678;12.464;2023-04-24T00:29:41;10.70;99.90
48454;DHT22;34261;55.678;12.464;2023-04-24T00:32:07;10.70;99.90
48454;DHT22;34261;55.678;12.464;2023-04-24T00:34:32;10.70;99.90
48454;DHT22;34261;55.678;12.464;2023-04-24T00:36:58;10.80;99.90
48454;DHT22;34261;55.678;12.464;2023-04-24T00:39:23;10.80;99.90
48454;DHT22;34261;55.678;12.464;2023-04-24T00:41:49;10.80;99.90
48454;DHT22;34261;55.678;12.464;2023-04-24T00:44:16;10.80;99.90
48454;DHT22;34261;55.678;12.464;2023-04-24T00:46:41;10.90;99.90
48454;DHT22;34261;55.678;12.464;2023-04-24T00:49:07;10.90;99.90
48454;DHT22;34261;55.678;12.464;2023-04-24T00:51:32;10.80;99.90
48454;DHT22;34261;55.678;12.464;2023-04-24T00:53:58;10.90;99.90
48454;DHT22;34261;55.678;12.464;2023-04-24T00:56:24;10.90;99.90
48454;DHT22;34261;55.678;12.464;2023-04-24T00:58:49;10.90;99.90
48454;DHT22;34261;55.678;12.464;2023-04-24T01:01:15;10.90;99.90
48454;DHT22;34261;55.678;12.464;2023-04-24T01:03:40;10.90;99.90
48454;DHT22;34261;55.678;12.464;2023-04-24T01:06:06;10.90;99.90
48454;DHT22;34261;55.678;12.464;2023-04-24T01:08:32;10.90;99.90
48454;DHT22;34261;55.678;12.464;2023-04-24T01:10:57;10.90;99.90
48454;DHT22;34261;55.678;12.464;2023-04-24T01:13:23;10.90;99.90
48454;DHT22;34261;55.678;12.464;2023-04-24T01:15:49;10.80;99.90
48454;DHT22;34261;55.678;12.464;2023-04-24T01:18:14;10.80;99.90
48454;DHT22;34261;55.678;12.464;2023-04-24T01:20:40;10.80;99.90
48454;DHT22;34261;55.678;12.464;2023-04-24T01:23:07;10.80;99.90
48454;DHT22;34261;55.678;12.464;2023-04-24T01:25:32;10.80;99.90
48454;DHT22;34261;55.678;12.464;2023-04-24T01:27:58;10.80;99.90
48454;DHT22;34261;55.678;12.464;2023-04-24T01:30:24;10.80;99.90
48454;DHT22;34261;55.678;12.464;2023-04-24T01:32:50;10.70;99.90
48454;DHT22;34261;55.678;12.464;2023-04-24T01:35:15;10.70;99.90
48454;DHT22;34261;55.678;12.464;2023-04-24T01:37:40;10.80;99.90
48454;DHT22;34261;55.678;12.464;2023-04-24T01:40:06;10.80;99.90
48454;DHT22;34261;55.678;12.464;2023-04-24T01:42:32;10.70;99.90
48454;DHT22;34261;55.678;12.464;2023-04-24T01:44:58;10.80;99.90
48454;DHT22;34261;55.678;12.464;2023-04-24T01:47:24;10.70;99.90
48454;DHT22;34261;55.678;12.464;2023-04-24T01:49:49;10.70;99.90
48454;DHT22;34261;55.678;12.464;2023-04-24T01:52:15;10.60;99.90
48454;DHT22;34261;55.678;12.464;2023-04-24T01:54:41;10.60;99.90
48454;DHT22;34261;55.678;12.464;2023-04-24T01:57:07;10.60;99.90
48454;DHT22;34261;55.678;12.464;2023-04-24T01:59:33;10.60;99.90
48454;DHT22;34261;55.678;12.464;2023-04-24T02:01:58;10.60;99.90
48454;DHT22;34261;55.678;12.464;2023-04-24T02:04:23;10.50;99.90
48454;DHT22;34261;55.678;12.464;2023-04-24T02:06:49;10.50;99.90
48454;DHT22;34261;55.678;12.464;2023-04-24T02:09:15;10.50;99.90
48454;DHT22;34261;55.678;12.464;2023-04-24T02:11:40;10.50;99.90
48454;DHT22;34261;55.678;12.464;2023-04-24T02:14:06;10.50;99.90
48454;DHT22;34261;55.678;12.464;2023-04-24T02:16:31;10.50;99.90
48454;DHT22;34261;55.678;12.464;2023-04-24T02:18:58;10.50;99.90
48454;DHT22;34261;55.678;12.464;2023-04-24T02:21:23;10.50;99.90
48454;DHT22;34261;55.678;12.464;2023-04-24T02:23:48;10.50;99.90
48454;DHT22;34261;55.678;12.464;2023-04-24T02:26:14;10.50;99.90
48454;DHT22;34261;55.678;12.464;2023-04-24T02:28:40;10.50;99.90
48454;DHT22;34261;55.678;12.464;2023-04-24T02:31:05;10.50;99.90
48454;DHT22;34261;55.678;12.464;2023-04-24T02:33:31;10.50;99.90
48454;DHT22;34261;55.678;12.464;2023-04-24T02:35:56;10.50;99.90
48454;DHT22;34261;55.678;12.464;2023-04-24T02:38:22;10.50;99.90
48454;DHT22;34261;55.678;12.464;2023-04-24T02:40:47;10.50;99.90
48454;DHT22;34261;55.678;12.464;2023-04-24T02:43:13;10.50;99.90
48454;DHT22;34261;55.678;12.464;2023-04-24T02:45:38;10.50;99.90
48454;DHT22;34261;55.678;12.464;2023-04-24T02:48:04;10.50;99.90
48454;DHT22;34261;55.678;12.464;2023-04-24T02:50:29;10.50;99.90
48454;DHT22;34261;55.678;12.464;2023-04-24T02:52:55;10.60;99.90
48454;DHT22;34261;55.678;12.464;2023-04-24T02:55:20;10.60;99.90
48454;DHT22;34261;55.678;12.464;2023-04-24T02:57:46;10.60;99.90
48454;DHT22;34261;55.678;12.464;2023-04-24T03:00:11;10.70;99.90
48454;DHT22;34261;55.678;12.464;2023-04-24T03:02:37;10.70;99.90
48454;DHT22;34261;55.678;12.464;2023-04-24T03:05:02;10.70;99.90
48454;DHT22;34261;55.678;12.464;2023-04-24T03:07:29;10.80;99.90
48454;DHT22;34261;55.678;12.464;2023-04-24T03:09:56;10.80;99.90
48454;DHT22;34261;55.678;12.464;2023-04-24T03:12:23;10.90;99.90
48454;DHT22;34261;55.678;12.464;2023-04-24T03:14:49;10.90;99.90
48454;DHT22;34261;55.678;12.464;2023-04-24T03:17:14;10.90;99.90
48454;DHT22;34261;55.678;12.464;2023-04-24T03:19:40;10.90;99.90
48454;DHT22;34261;55.678;12.464;2023-04-24T03:22:05;10.90;99.90
48454;DHT22;34261;55.678;12.464;2023-04-24T03:24:31;10.90;99.90
48454;DHT22;34261;55.678;12.464;2023-04-24T03:26:56;10.90;99.90
48454;DHT22;34261;55.678;12.464;2023-04-24T03:29:22;10.90;99.90
48454;DHT22;34261;55.678;12.464;2023-04-24T03:31:48;10.90;99.90
48454;DHT22;34261;55.678;12.464;2023-04-24T03:34:13;11.00;99.90
48454;DHT22;34261;55.678;12.464;2023-04-24T03:36:38;11.00;99.90
48454;DHT22;34261;55.678;12.464;2023-04-24T03:39:04;11.00;99.90
48454;DHT22;34261;55.678;12.464;2023-04-24T03:41:29;11.00;99.90
48454;DHT22;34261;55.678;12.464;2023-04-24T03:43:55;11.00;99.90
48454;DHT22;34261;55.678;12.464;2023-04-24T03:46:21;11.10;99.90
48454;DHT22;34261;55.678;12.464;2023-04-24T03:48:46;11.10;99.90
48454;DHT22;34261;55.678;12.464;2023-04-24T03:51:12;11.10;99.90
48454;DHT22;34261;55.678;12.464;2023-04-24T03:53:37;11.10;99.90
48454;DHT22;34261;55.678;12.464;2023-04-24T03:56:02;11.10;99.90
48454;DHT22;34261;55.678;12.464;2023-04-24T03:58:28;11.10;99.90
48454;DHT22;34261;55.678;12.464;2023-04-24T04:00:53;11.10;99.90
48454;DHT22;34261;55.678;12.464;2023-04-24T04:03:19;11.10;99.90
48454;DHT22;34261;55.678;12.464;2023-04-24T04:05:44;11.10;99.90
48454;DHT22;34261;55.678;12.464;2023-04-24T04:08:10;11.10;99.90
48454;DHT22;34261;55.678;12.464;2023-04-24T04:10:35;11.10;99.90
48454;DHT22;34261;55.678;12.464;2023-04-24T04:13:01;11.10;99.90
48454;DHT22;34261;55.678;12.464;2023-04-24T04:15:26;11.20;99.90
48454;DHT22;34261;55.678;12.464;2023-04-24T04:17:52;11.20;99.90
48454;DHT22;34261;55.678;12.464;2023-04-24T04:20:17;11.10;99.90
48454;DHT22;34261;55.678;12.464;2023-04-24T04:22:42;11.20;99.90
48454;DHT22;34261;55.678;12.464;2023-04-24T04:25:08;11.10;99.90
48454;DHT22;34261;55.678;12.464;2023-04-24T04:27:33;11.10;99.90
48454;DHT22;34261;55.678;12.464;2023-04-24T04:29:59;11.20;99.90
48454;DHT22;34261;55.678;12.464;2023-04-24T04:32:33;11.20;99.90
48454;DHT22;34261;55.678;12.464;2023-04-24T04:34:58;11.20;99.90
48454;DHT22;34261;55.678;12.464;2023-04-24T04:37:31;11.20;99.90
48454;DHT22;34261;55.678;12.464;2023-04-24T04:39:58;11.30;99.90
48454;DHT22;34261;55.678;12.464;2023-04-24T04:42:24;11.30;99.90
48454;DHT22;34261;55.678;12.464;2023-04-24T04:44:50;11.20;99.90
48454;DHT22;34261;55.678;12.464;2023-04-24T04:47:16;11.20;99.90
48454;DHT22;34261;55.678;12.464;2023-04-24T04:49:42;11.20;99.90
48454;DHT22;34261;55.678;12.464;2023-04-24T04:52:08;11.20;99.90
48454;DHT22;34261;55.678;12.464;2023-04-24T04:54:33;11.30;99.90
48454;DHT22;34261;55.678;12.464;2023-04-24T04:56:59;11.30;99.90
48454;DHT22;34261;55.678;12.464;2023-04-24T04:59:26;11.30;99.90
48454;DHT22;34261;55.678;12.464;2023-04-24T05:01:51;11.30;99.90
48454;DHT22;34261;55.678;12.464;2023-04-24T05:04:17;11.30;99.90
48454;DHT22;34261;55.678;12.464;2023-04-24T05:06:42;11.40;99.90
48454;DHT22;34261;55.678;12.464;2023-04-24T05:09:08;11.40;99.90
48454;DHT22;34261;55.678;12.464;2023-04-24T05:11:33;11.40;99.90
48454;DHT22;34261;55.678;12.464;2023-04-24T05:13:59;11.50;99.90
48454;DHT22;34261;55.678;12.464;2023-04-24T05:16:24;11.40;99.90
48454;DHT22;34261;55.678;12.464;2023-04-24T05:18:49;11.50;99.90
48454;DHT22;34261;55.678;12.464;2023-04-24T05:21:15;11.60;99.90
48454;DHT22;34261;55.678;12.464;2023-04-24T05:23:40;11.60;99.90
48454;DHT22;34261;55.678;12.464;2023-04-24T05:26:06;11.60;99.90
48454;DHT22;34261;55.678;12.464;2023-04-24T05:28:31;11.70;99.90
48454;DHT22;34261;55.678;12.464;2023-04-24T05:30:57;11.80;99.90
48454;DHT22;34261;55.678;12.464;2023-04-24T05:33:24;11.70;99.90
48454;DHT22;34261;55.678;12.464;2023-04-24T05:35:49;11.80;99.90
48454;DHT22;34261;55.678;12.464;2023-04-24T05:38:15;11.80;99.90
48454;DHT22;34261;55.678;12.464;2023-04-24T05:40:43;11.80;99.90
48454;DHT22;34261;55.678;12.464;2023-04-24T05:43:08;11.80;99.90
48454;DHT22;34261;55.678;12.464;2023-04-24T05:45:33;11.80;99.90
48454;DHT22;34261;55.678;12.464;2023-04-24T05:48:01;11.90;99.90
48454;DHT22;34261;55.678;12.464;2023-04-24T05:50:27;11.80;99.90
48454;DHT22;34261;55.678;12.464;2023-04-24T05:52:52;11.80;99.90
48454;DHT22;34261;55.678;12.464;2023-04-24T05:55:18;11.80;99.90
48454;DHT22;34261;55.678;12.464;2023-04-24T05:57:44;11.70;99.90
48454;DHT22;34261;55.678;12.464;2023-04-24T06:00:09;11.70;99.90
48454;DHT22;34261;55.678;12.464;2023-04-24T06:02:37;11.70;99.90
48454;DHT22;34261;55.678;12.464;2023-04-24T06:05:03;11.80;99.90
48454;DHT22;34261;55.678;12.464;2023-04-24T06:07:30;11.80;99.90
48454;DHT22;34261;55.678;12.464;2023-04-24T06:09:55;11.90;99.90
48454;DHT22;34261;55.678;12.464;2023-04-24T06:12:22;11.90;99.90
48454;DHT22;34261;55.678;12.464;2023-04-24T06:14:47;11.90;99.90
48454;DHT22;34261;55.678;12.464;2023-04-24T06:17:13;11.90;99.90
48454;DHT22;34261;55.678;12.464;2023-04-24T06:19:38;12.00;99.90
48454;DHT22;34261;55.678;12.464;2023-04-24T06:22:04;12.00;99.90
48454;DHT22;34261;55.678;12.464;2023-04-24T06:24:29;12.00;99.90
48454;DHT22;34261;55.678;12.464;2023-04-24T06:26:55;12.10;99.90
48454;DHT22;34261;55.678;12.464;2023-04-24T06:29:22;12.10;99.90
48454;DHT22;34261;55.678;12.464;2023-04-24T06:31:47;12.10;99.90
48454;DHT22;34261;55.678;12.464;2023-04-24T06:34:13;12.00;99.90
48454;DHT22;34261;55.678;12.464;2023-04-24T06:36:39;12.00;99.90
48454;DHT22;34261;55.678;12.464;2023-04-24T06:39:04;12.00;99.90
48454;DHT22;34261;55.678;12.464;2023-04-24T06:41:30;11.90;99.90
48454;DHT22;34261;55.678;12.464;2023-04-24T06:43:55;11.90;99.90
48454;DHT22;34261;55.678;12.464;2023-04-24T06:46:21;11.90;99.90
48454;DHT22;34261;55.678;12.464;2023-04-24T06:48:54;11.80;99.90
48454;DHT22;34261;55.678;12.464;2023-04-24T06:51:23;11.70;99.90
48454;DHT22;34261;55.678;12.464;2023-04-24T06:53:48;11.70;99.90
48454;DHT22;34261;55.678;12.464;2023-04-24T06:56:15;11.70;99.90
48454;DHT22;34261;55.678;12.464;2023-04-24T06:58:40;11.70;99.90
48454;DHT22;34261;55.678;12.464;2023-04-24T07:01:06;11.70;99.90
48454;DHT22;34261;55.678;12.464;2023-04-24T07:03:31;11.60;99.90
48454;DHT22;34261;55.678;12.464;2023-04-24T07:05:56;11.60;99.90
48454;DHT22;34261;55.678;12.464;2023-04-24T07:08:23;11.60;99.90
48454;DHT22;34261;55.678;12.464;2023-04-24T07:10:49;11.50;99.90
48454;DHT22;34261;55.678;12.464;2023-04-24T07:13:16;11.60;99.90
48454;DHT22;34261;55.678;12.464;2023-04-24T07:15:41;11.60;99.90
48454;DHT22;34261;55.678;12.464;2023-04-24T07:18:07;11.60;99.90
48454;DHT22;34261;55.678;12.464;2023-04-24T07:20:32;11.60;99.90
48454;DHT22;34261;55.678;12.464;2023-04-24T07:22:58;11.60;99.90
48454;DHT22;34261;55.678;12.464;2023-04-24T07:25:23;11.50;99.90
48454;DHT22;34261;55.678;12.464;2023-04-24T07:27:49;11.40;99.90
48454;DHT22;34261;55.678;12.464;2023-04-24T07:30:14;11.30;99.90
48454;DHT22;34261;55.678;12.464;2023-04-24T07:32:40;11.30;99.90
48454;DHT22;34261;55.678;12.464;2023-04-24T07:35:05;11.30;99.90
48454;DHT22;34261;55.678;12.464;2023-04-24T07:37:31;11.40;99.90
48454;DHT22;34261;55.678;12.464;2023-04-24T07:39:57;11.40;99.90
48454;DHT22;34261;55.678;12.464;2023-04-24T07:42:22;11.50;99.90
48454;DHT22;34261;55.678;12.464;2023-04-24T07:44:47;11.50;99.90
48454;DHT22;34261;55.678;12.464;2023-04-24T07:47:13;11.50;99.90
48454;DHT22;34261;55.678;12.464;2023-04-24T07:49:41;11.50;99.90
48454;DHT22;34261;55.678;12.464;2023-04-24T07:52:06;11.50;99.90
48454;DHT22;34261;55.678;12.464;2023-04-24T07:54:32;11.50;99.90
48454;DHT22;34261;55.678;12.464;2023-04-24T07:56:57;11.50;99.90
48454;DHT22;34261;55.678;12.464;2023-04-24T07:59:23;11.50;99.90
48454;DHT22;34261;55.678;12.464;2023-04-24T08:01:48;11.50;99.90
48454;DHT22;34261;55.678;12.464;2023-04-24T08:04:14;11.60;99.90
48454;DHT22;34261;55.678;12.464;2023-04-24T08:06:39;11.60;99.90
48454;DHT22;34261;55.678;12.464;2023-04-24T08:09:05;11.60;99.90
48454;DHT22;34261;55.678;12.464;2023-04-24T08:11:30;11.60;99.90
48454;DHT22;34261;55.678;12.464;2023-04-24T08:13:57;11.50;99.90
48454;DHT22;34261;55.678;12.464;2023-04-24T08:16:22;11.50;99.90
48454;DHT22;34261;55.678;12.464;2023-04-24T08:18:49;11.50;99.90
48454;DHT22;34261;55.678;12.464;2023-04-24T08:21:15;11.50;99.90
48454;DHT22;34261;55.678;12.464;2023-04-24T08:23:42;11.40;99.90
48454;DHT22;34261;55.678;12.464;2023-04-24T08:26:08;11.40;99.90
48454;DHT22;34261;55.678;12.464;2023-04-24T08:28:33;11.40;99.90
48454;DHT22;34261;55.678;12.464;2023-04-24T08:30:58;11.40;99.90
48454;DHT22;34261;55.678;12.464;2023-04-24T08:33:24;11.30;99.90
48454;DHT22;34261;55.678;12.464;2023-04-24T08:35:50;11.30;99.90
48454;DHT22;34261;55.678;12.464;2023-04-24T08:38:15;11.30;99.90
48454;DHT22;34261;55.678;12.464;2023-04-24T08:40:41;11.30;99.90
48454;DHT22;34261;55.678;12.464;2023-04-24T08:43:07;11.20;99.90
48454;DHT22;34261;55.678;12.464;2023-04-24T08:45:33;11.30;99.90
48454;DHT22;34261;55.678;12.464;2023-04-24T08:47:58;11.30;99.90
48454;DHT22;34261;55.678;12.464;2023-04-24T08:50:24;11.30;99.90
48454;DHT22;34261;55.678;12.464;2023-04-24T08:52:50;11.30;99.90
48454;DHT22;34261;55.678;12.464;2023-04-24T08:55:19;11.40;99.90
48454;DHT22;34261;55.678;12.464;2023-04-24T08:57:45;11.30;99.90
48454;DHT22;34261;55.678;12.464;2023-04-24T09:00:16;11.30;99.90
48454;DHT22;34261;55.678;12.464;2023-04-24T09:02:42;11.40;99.90
48454;DHT22;34261;55.678;12.464;2023-04-24T09:05:08;11.40;99.90
48454;DHT22;34261;55.678;12.464;2023-04-24T09:07:35;11.50;99.90
48454;DHT22;34261;55.678;12.464;2023-04-24T09:10:01;11.60;99.90
48454;DHT22;34261;55.678;12.464;2023-04-24T09:12:27;11.60;99.90
48454;DHT22;34261;55.678;12.464;2023-04-24T09:14:52;11.70;99.90
48454;DHT22;34261;55.678;12.464;2023-04-24T09:17:18;11.80;99.90
48454;DHT22;34261;55.678;12.464;2023-04-24T09:19:44;11.80;99.90
48454;DHT22;34261;55.678;12.464;2023-04-24T09:22:09;11.80;99.90
48454;DHT22;34261;55.678;12.464;2023-04-24T09:24:35;11.90;99.90
48454;DHT22;34261;55.678;12.464;2023-04-24T09:27:00;11.90;99.90
48454;DHT22;34261;55.678;12.464;2023-04-24T09:29:29;12.00;99.90
48454;DHT22;34261;55.678;12.464;2023-04-24T09:31:55;12.00;99.90
48454;DHT22;34261;55.678;12.464;2023-04-24T09:34:21;12.10;99.90
48454;DHT22;34261;55.678;12.464;2023-04-24T09:36:46;12.20;99.90
48454;DHT22;34261;55.678;12.464;2023-04-24T09:39:13;12.20;99.90
48454;DHT22;34261;55.678;12.464;2023-04-24T09:44:13;12.30;99.90
48454;DHT22;34261;55.678;12.464;2023-04-24T09:46:44;12.40;99.90
48454;DHT22;34261;55.678;12.464;2023-04-24T09:49:12;12.30;99.90
48454;DHT22;34261;55.678;12.464;2023-04-24T09:51:38;12.50;99.90
48454;DHT22;34261;55.678;12.464;2023-04-24T09:54:04;12.50;99.90
48454;DHT22;34261;55.678;12.464;2023-04-24T09:56:33;12.70;99.90
48454;DHT22;34261;55.678;12.464;2023-04-24T09:59:06;12.80;99.90
48454;DHT22;34261;55.678;12.464;2023-04-24T10:01:32;12.80;99.90
48454;DHT22;34261;55.678;12.464;2023-04-24T10:03:57;12.70;99.90
48454;DHT22;34261;55.678;12.464;2023-04-24T10:06:24;12.80;99.90
48454;DHT22;34261;55.678;12.464;2023-04-24T10:08:55;12.90;99.90
48454;DHT22;34261;55.678;12.464;2023-04-24T10:11:24;13.20;99.90
48454;DHT22;34261;55.678;12.464;2023-04-24T10:13:49;13.20;99.90
48454;DHT22;34261;55.678;12.464;2023-04-24T10:16:15;13.30;99.90
48454;DHT22;34261;55.678;12.464;2023-04-24T10:18:41;13.60;99.90
48454;DHT22;34261;55.678;12.464;2023-04-24T10:21:07;13.60;99.90
48454;DHT22;34261;55.678;12.464;2023-04-24T10:23:32;13.80;99.90
48454;DHT22;34261;55.678;12.464;2023-04-24T10:26:03;13.80;99.90
48454;DHT22;34261;55.678;12.464;2023-04-24T10:28:29;14.00;99.90
48454;DHT22;34261;55.678;12.464;2023-04-24T10:30:59;14.00;99.90
48454;DHT22;34261;55.678;12.464;2023-04-24T10:33:25;14.00;99.90
48454;DHT22;34261;55.678;12.464;2023-04-24T10:35:51;14.10;99.90
48454;DHT22;34261;55.678;12.464;2023-04-24T10:38:18;14.10;99.90
48454;DHT22;34261;55.678;12.464;2023-04-24T10:40:46;14.30;99.90
48454;DHT22;34261;55.678;12.464;2023-04-24T10:43:17;14.40;99.90
48454;DHT22;34261;55.678;12.464;2023-04-24T10:45:59;14.40;99.90
48454;DHT22;34261;55.678;12.464;2023-04-24T10:48:26;14.40;99.90
48454;DHT22;34261;55.678;12.464;2023-04-24T10:50:52;14.40;99.90
48454;DHT22;34261;55.678;12.464;2023-04-24T10:53:19;14.70;99.90
48454;DHT22;34261;55.678;12.464;2023-04-24T10:55:49;14.70;99.90
48454;DHT22;34261;55.678;12.464;2023-04-24T10:58:15;14.70;99.90
48454;DHT22;34261;55.678;12.464;2023-04-24T11:01:22;14.80;99.90
48454;DHT22;34261;55.678;12.464;2023-04-24T11:03:34;14.80;99.90
48454;DHT22;34261;55.678;12.464;2023-04-24T11:08:44;15.20;99.90
48454;DHT22;34261;55.678;12.464;2023-04-24T11:16:32;15.40;99.90
48454;DHT22;34261;55.678;12.464;2023-04-24T11:21:31;15.30;99.90
48454;DHT22;34261;55.678;12.464;2023-04-24T11:23:57;15.20;99.90
48454;DHT22;34261;55.678;12.464;2023-04-24T11:26:22;15.10;99.90
48454;DHT22;34261;55.678;12.464;2023-04-24T11:28:55;15.20;99.90
48454;DHT22;34261;55.678;12.464;2023-04-24T11:31:44;15.10;99.90
48454;DHT22;34261;55.678;12.464;2023-04-24T11:34:16;15.20;99.90
48454;DHT22;34261;55.678;12.464;2023-04-24T11:36:42;15.10;99.90
48454;DHT22;34261;55.678;12.464;2023-04-24T11:39:08;15.40;99.90
48454;DHT22;34261;55.678;12.464;2023-04-24T11:41:33;15.70;99.90
48454;DHT22;34261;55.678;12.464;2023-04-24T11:43:59;16.20;99.90
48454;DHT22;34261;55.678;12.464;2023-04-24T11:46:28;15.90;99.90
48454;DHT22;34261;55.678;12.464;2023-04-24T11:48:55;15.80;99.90
48454;DHT22;34261;55.678;12.464;2023-04-24T11:51:22;15.60;99.90
48454;DHT22;34261;55.678;12.464;2023-04-24T11:53:47;15.70;99.90
48454;DHT22;34261;55.678;12.464;2023-04-24T11:56:16;15.50;99.90
48454;DHT22;34261;55.678;12.464;2023-04-24T11:58:44;15.30;99.90
48454;DHT22;34261;55.678;12.464;2023-04-24T12:01:09;15.40;99.90
48454;DHT22;34261;55.678;12.464;2023-04-24T12:03:35;15.50;99.90
48454;DHT22;34261;55.678;12.464;2023-04-24T12:06:10;15.30;99.90
48454;DHT22;34261;55.678;12.464;2023-04-24T12:08:36;15.30;99.90
48454;DHT22;34261;55.678;12.464;2023-04-24T12:11:02;15.20;99.90
48454;DHT22;34261;55.678;12.464;2023-04-24T12:13:28;15.50;99.90
48454;DHT22;34261;55.678;12.464;2023-04-24T12:15:54;15.70;99.90
48454;DHT22;34261;55.678;12.464;2023-04-24T12:18:22;15.70;99.90
48454;DHT22;34261;55.678;12.464;2023-04-24T12:20:47;15.90;99.90
48454;DHT22;34261;55.678;12.464;2023-04-24T12:23:13;16.20;99.90
48454;DHT22;34261;55.678;12.464;2023-04-24T12:25:38;16.60;99.90
48454;DHT22;34261;55.678;12.464;2023-04-24T12:30:30;16.30;99.90
48454;DHT22;34261;55.678;12.464;2023-04-24T12:32:57;16.30;99.90
48454;DHT22;34261;55.678;12.464;2023-04-24T12:35:23;16.30;99.90
48454;DHT22;34261;55.678;12.464;2023-04-24T12:37:49;16.20;99.90
48454;DHT22;34261;55.678;12.464;2023-04-24T12:40:16;15.90;99.90
48454;DHT22;34261;55.678;12.464;2023-04-24T12:42:42;16.40;99.90
48454;DHT22;34261;55.678;12.464;2023-04-24T12:45:08;17.00;99.90
48454;DHT22;34261;55.678;12.464;2023-04-24T12:47:34;17.30;99.90
48454;DHT22;34261;55.678;12.464;2023-04-24T12:50:00;17.80;99.90
48454;DHT22;34261;55.678;12.464;2023-04-24T12:52:25;17.50;99.70
48454;DHT22;34261;55.678;12.464;2023-04-24T12:54:55;17.10;99.90
48454;DHT22;34261;55.678;12.464;2023-04-24T12:57:21;17.00;99.90
48454;DHT22;34261;55.678;12.464;2023-04-24T12:59:46;17.10;99.90
48454;DHT22;34261;55.678;12.464;2023-04-24T13:02:12;17.20;99.90
48454;DHT22;34261;55.678;12.464;2023-04-24T13:04:38;18.00;99.90
48454;DHT22;34261;55.678;12.464;2023-04-24T13:07:05;18.60;99.30
48454;DHT22;34261;55.678;12.464;2023-04-24T13:09:30;19.00;97.80
48454;DHT22;34261;55.678;12.464;2023-04-24T13:11:56;18.80;97.20
48454;DHT22;34261;55.678;12.464;2023-04-24T13:14:22;18.80;96.90
48454;DHT22;34261;55.678;12.464;2023-04-24T13:16:47;18.50;97.60
48454;DHT22;34261;55.678;12.464;2023-04-24T13:19:13;18.30;97.20
48454;DHT22;34261;55.678;12.464;2023-04-24T13:21:38;18.00;97.90
48454;DHT22;34261;55.678;12.464;2023-04-24T13:24:04;17.90;97.80
48454;DHT22;34261;55.678;12.464;2023-04-24T13:26:30;17.80;97.70
48454;DHT22;34261;55.678;12.464;2023-04-24T13:28:56;17.40;98.30
48454;DHT22;34261;55.678;12.464;2023-04-24T13:31:21;17.20;98.10
48454;DHT22;34261;55.678;12.464;2023-04-24T13:33:47;17.40;98.90
48454;DHT22;34261;55.678;12.464;2023-04-24T13:36:12;17.40;98.20
48454;DHT22;34261;55.678;12.464;2023-04-24T13:38:38;17.50;98.60
48454;DHT22;34261;55.678;12.464;2023-04-24T13:41:03;17.40;97.90
48454;DHT22;34261;55.678;12.464;2023-04-24T13:43:29;17.60;98.20
48454;DHT22;34261;55.678;12.464;2023-04-24T13:45:55;17.60;98.60
48454;DHT22;34261;55.678;12.464;2023-04-24T13:48:20;17.40;98.30
48454;DHT22;34261;55.678;12.464;2023-04-24T13:50:46;17.20;98.60
48454;DHT22;34261;55.678;12.464;2023-04-24T13:53:13;17.20;98.30
48454;DHT22;34261;55.678;12.464;2023-04-24T13:55:39;17.00;97.90
48454;DHT22;34261;55.678;12.464;2023-04-24T13:58:04;16.90;98.70
48454;DHT22;34261;55.678;12.464;2023-04-24T14:00:30;16.90;98.80
48454;DHT22;34261;55.678;12.464;2023-04-24T14:02:56;16.80;98.30
48454;DHT22;34261;55.678;12.464;2023-04-24T14:05:21;16.70;98.80
48454;DHT22;34261;55.678;12.464;2023-04-24T14:07:47;16.70;98.00
48454;DHT22;34261;55.678;12.464;2023-04-24T14:10:12;16.70;99.00
48454;DHT22;34261;55.678;12.464;2023-04-24T14:12:38;16.90;98.80
48454;DHT22;34261;55.678;12.464;2023-04-24T14:15:04;16.80;98.40
48454;DHT22;34261;55.678;12.464;2023-04-24T14:17:30;16.80;98.40
48454;DHT22;34261;55.678;12.464;2023-04-24T14:19:56;16.70;98.00
48454;DHT22;34261;55.678;12.464;2023-04-24T14:22:22;16.60;98.50
48454;DHT22;34261;55.678;12.464;2023-04-24T14:24:47;16.60;97.80
48454;DHT22;34261;55.678;12.464;2023-04-24T14:27:12;17.10;98.30
48454;DHT22;34261;55.678;12.464;2023-04-24T14:29:38;17.20;97.50
48454;DHT22;34261;55.678;12.464;2023-04-24T14:32:03;17.20;97.60
48454;DHT22;34261;55.678;12.464;2023-04-24T14:34:29;17.30;97.30
48454;DHT22;34261;55.678;12.464;2023-04-24T14:36:54;17.30;97.00
48454;DHT22;34261;55.678;12.464;2023-04-24T14:39:20;17.40;97.20
48454;DHT22;34261;55.678;12.464;2023-04-24T14:41:45;17.40;96.80
48454;DHT22;34261;55.678;12.464;2023-04-24T14:44:11;17.50;96.70
48454;DHT22;34261;55.678;12.464;2023-04-24T14:46:36;17.80;96.60
48454;DHT22;34261;55.678;12.464;2023-04-24T14:49:02;17.70;96.40
48454;DHT22;34261;55.678;12.464;2023-04-24T14:51:27;17.60;96.50
48454;DHT22;34261;55.678;12.464;2023-04-24T14:53:53;17.80;96.40
48454;DHT22;34261;55.678;12.464;2023-04-24T14:56:18;17.90;96.30
48454;DHT22;34261;55.678;12.464;2023-04-24T14:58:43;18.00;95.80
48454;DHT22;34261;55.678;12.464;2023-04-24T15:01:10;17.90;95.70
48454;DHT22;34261;55.678;12.464;2023-04-24T15:03:35;18.20;95.20
48454;DHT22;34261;55.678;12.464;2023-04-24T15:06:01;18.10;95.30
48454;DHT22;34261;55.678;12.464;2023-04-24T15:08:27;18.10;95.50
48454;DHT22;34261;55.678;12.464;2023-04-24T15:10:52;18.20;95.80
48454;DHT22;34261;55.678;12.464;2023-04-24T15:13:18;18.20;95.00
48454;DHT22;34261;55.678;12.464;2023-04-24T15:15:45;17.80;95.30
48454;DHT22;34261;55.678;12.464;2023-04-24T15:18:11;17.60;95.80
48454;DHT22;34261;55.678;12.464;2023-04-24T15:20:36;17.70;96.60
48454;DHT22;34261;55.678;12.464;2023-04-24T15:23:04;17.70;96.20